sensor_id;sensor_type;location;lat;lon;timestamp;pressure;altitude;pressure_sealevel;temperature;humidity
35551;BME280;21655;46.056;13.616;2022-09-11T09:47:56;100268.84;;;36.73;25.88
35551;BME280;21655;46.056;13.616;2022-09-11T09:50:31;100273.38;;;36.41;24.93
35551;BME280;21655;46.056;13.616;2022-09-11T09:54:11;100263.94;;;35.83;24.69
35551;BME280;21655;46.056;13.616;2022-09-11T09:56:05;100254.00;;;36.62;25.16
35551;BME280;21655;46.056;13.616;2022-09-11T09:58:35;100257.81;;;36.75;25.00
35551;BME280;21655;46.056;13.616;2022-09-11T10:01:08;100258.31;;;36.56;26.01
35551;BME280;21655;46.056;13.616;2022-09-11T10:04:08;100256.78;;;37.24;25.03
35551;BME280;21655;46.056;13.616;2022-09-11T10:06:35;100257.31;;;37.62;25.91
35551;BME280;21655;46.056;13.616;2022-09-11T10:09:01;100256.44;;;37.85;25.68
35551;BME280;21655;46.056;13.616;2022-09-11T10:11:27;100251.09;;;37.15;24.16
35551;BME280;21655;46.056;13.616;2022-09-11T10:13:54;100255.13;;;36.49;23.76
35551;BME280;21655;46.056;13.616;2022-09-11T10:16:20;100243.75;;;36.85;22.46
35551;BME280;21655;46.056;13.616;2022-09-11T10:18:47;100248.16;;;36.50;23.91
35551;BME280;21655;46.056;13.616;2022-09-11T10:21:14;100242.50;;;36.74;22.81
35551;BME280;21655;46.056;13.616;2022-09-11T10:26:37;100239.28;;;37.20;24.00
35551;BME280;21655;46.056;13.616;2022-09-11T10:29:13;100237.22;;;36.88;23.64
35551;BME280;21655;46.056;13.616;2022-09-11T10:31:41;100233.09;;;37.10;25.06
35551;BME280;21655;46.056;13.616;2022-09-11T10:34:14;100233.22;;;37.13;23.46
35551;BME280;21655;46.056;13.616;2022-09-11T10:36:54;100241.34;;;37.44;23.05
35551;BME280;21655;46.056;13.616;2022-09-11T10:39:22;100230.97;;;38.02;23.64
35551;BME280;21655;46.056;13.616;2022-09-11T10:41:50;100230.50;;;38.00;22.96
35551;BME280;21655;46.056;13.616;2022-09-11T10:44:19;100223.91;;;38.27;21.86
35551;BME280;21655;46.056;13.616;2022-09-11T10:47:11;100226.19;;;36.17;22.94
35551;BME280;21655;46.056;13.616;2022-09-11T10:49:38;100220.44;;;36.08;24.87
35551;BME280;21655;46.056;13.616;2022-09-11T11:04:59;100206.03;;;33.74;26.69
35551;BME280;21655;46.056;13.616;2022-09-11T11:16:07;100209.06;;;32.17;28.00
35551;BME280;21655;46.056;13.616;2022-09-11T11:23:49;100206.56;;;29.29;31.42
35551;BME280;21655;46.056;13.616;2022-09-11T11:36:42;100195.47;;;33.05;27.25
35551;BME280;21655;46.056;13.616;2022-09-11T11:39:35;100203.34;;;33.30;26.26
35551;BME280;21655;46.056;13.616;2022-09-11T11:42:11;100200.41;;;32.61;26.97
35551;BME280;21655;46.056;13.616;2022-09-11T11:47:09;100191.25;;;32.06;29.35
35551;BME280;21655;46.056;13.616;2022-09-11T11:57:31;100194.81;;;32.56;28.08
35551;BME280;21655;46.056;13.616;2022-09-11T12:00:15;100191.97;;;32.34;28.20
35551;BME280;21655;46.056;13.616;2022-09-11T12:05:32;100187.72;;;31.12;29.19
35551;BME280;21655;46.056;13.616;2022-09-11T12:07:59;100196.41;;;30.48;29.79
35551;BME280;21655;46.056;13.616;2022-09-11T12:11:23;100199.50;;;30.01;31.60
35551;BME280;21655;46.056;13.616;2022-09-11T12:13:41;100197.19;;;29.47;30.86
35551;BME280;21655;46.056;13.616;2022-09-11T12:18:37;100196.34;;;29.84;31.30
35551;BME280;21655;46.056;13.616;2022-09-11T12:26:22;100196.41;;;28.72;34.25
35551;BME280;21655;46.056;13.616;2022-09-11T12:37:20;100176.41;;;31.69;31.57
35551;BME280;21655;46.056;13.616;2022-09-11T12:39:52;100174.53;;;32.08;30.20
35551;BME280;21655;46.056;13.616;2022-09-11T12:47:26;100161.31;;;31.99;29.65
35551;BME280;21655;46.056;13.616;2022-09-11T12:50:16;100161.88;;;32.09;29.80
35551;BME280;21655;46.056;13.616;2022-09-11T12:55:28;100160.75;;;30.54;32.03
35551;BME280;21655;46.056;13.616;2022-09-11T12:57:57;100157.75;;;30.32;33.23
35551;BME280;21655;46.056;13.616;2022-09-11T13:00:41;100169.31;;;29.58;33.04
35551;BME280;21655;46.056;13.616;2022-09-11T13:03:20;100163.81;;;29.01;33.09
35551;BME280;21655;46.056;13.616;2022-09-11T13:05:56;100182.94;;;28.49;33.53
35551;BME280;21655;46.056;13.616;2022-09-11T13:08:26;100172.25;;;28.64;34.13
35551;BME280;21655;46.056;13.616;2022-09-11T13:13:57;100180.88;;;28.26;35.43
35551;BME280;21655;46.056;13.616;2022-09-11T13:16:26;100177.03;;;28.45;34.27
35551;BME280;21655;46.056;13.616;2022-09-11T13:19:13;100171.38;;;29.11;33.56
35551;BME280;21655;46.056;13.616;2022-09-11T13:21:40;100172.25;;;29.11;34.01
35551;BME280;21655;46.056;13.616;2022-09-11T13:26:48;100161.00;;;29.20;34.48
35551;BME280;21655;46.056;13.616;2022-09-11T13:29:20;100156.66;;;29.22;36.10
35551;BME280;21655;46.056;13.616;2022-09-11T13:31:47;100159.31;;;28.95;34.75
35551;BME280;21655;46.056;13.616;2022-09-11T13:34:16;100160.75;;;28.69;33.60
35551;BME280;21655;46.056;13.616;2022-09-11T13:36:43;100162.22;;;28.43;33.56
35551;BME280;21655;46.056;13.616;2022-09-11T13:39:13;100149.59;;;28.16;36.35
35551;BME280;21655;46.056;13.616;2022-09-11T13:41:41;100157.84;;;28.51;38.18
35551;BME280;21655;46.056;13.616;2022-09-11T13:47:04;100148.28;;;27.75;38.25
35551;BME280;21655;46.056;13.616;2022-09-11T13:49:36;100152.28;;;27.74;38.39
35551;BME280;21655;46.056;13.616;2022-09-11T13:52:08;100163.53;;;27.50;37.68
35551;BME280;21655;46.056;13.616;2022-09-11T13:54:38;100152.22;;;27.79;38.21
35551;BME280;21655;46.056;13.616;2022-09-11T13:57:14;100154.91;;;27.99;37.35
35551;BME280;21655;46.056;13.616;2022-09-11T14:05:13;100157.81;;;27.94;36.11
35551;BME280;21655;46.056;13.616;2022-09-11T14:10:52;100148.63;;;27.97;35.90
35551;BME280;21655;46.056;13.616;2022-09-11T14:18:48;100146.53;;;27.79;36.94
35551;BME280;21655;46.056;13.616;2022-09-11T14:21:32;100151.81;;;27.57;37.20
35551;BME280;21655;46.056;13.616;2022-09-11T14:23:58;100140.16;;;27.53;38.63
35551;BME280;21655;46.056;13.616;2022-09-11T14:26:39;100145.25;;;27.95;40.42
35551;BME280;21655;46.056;13.616;2022-09-11T14:29:20;100139.44;;;27.76;37.33
35551;BME280;21655;46.056;13.616;2022-09-11T14:31:50;100142.72;;;27.55;38.67
35551;BME280;21655;46.056;13.616;2022-09-11T14:34:25;100144.19;;;27.42;39.13
35551;BME280;21655;46.056;13.616;2022-09-11T14:36:55;100145.97;;;27.77;39.56
35551;BME280;21655;46.056;13.616;2022-09-11T14:39:29;100138.31;;;27.67;40.50
35551;BME280;21655;46.056;13.616;2022-09-11T14:41:56;100144.06;;;27.62;39.85
35551;BME280;21655;46.056;13.616;2022-09-11T14:44:23;100131.91;;;27.47;39.98
35551;BME280;21655;46.056;13.616;2022-09-11T14:46:51;100140.16;;;27.53;40.17
35551;BME280;21655;46.056;13.616;2022-09-11T14:49:17;100135.19;;;27.69;39.85
35551;BME280;21655;46.056;13.616;2022-09-11T14:51:51;100129.88;;;27.52;40.90
35551;BME280;21655;46.056;13.616;2022-09-11T14:54:19;100133.16;;;27.36;40.45
35551;BME280;21655;46.056;13.616;2022-09-11T14:56:45;100126.88;;;27.34;39.79
35551;BME280;21655;46.056;13.616;2022-09-11T14:59:13;100127.09;;;27.47;39.58
35551;BME280;21655;46.056;13.616;2022-09-11T15:01:38;100131.81;;;27.62;40.53
35551;BME280;21655;46.056;13.616;2022-09-11T15:04:04;100137.00;;;27.55;39.91
35551;BME280;21655;46.056;13.616;2022-09-11T15:06:29;100136.06;;;27.64;40.54
35551;BME280;21655;46.056;13.616;2022-09-11T15:08:55;100128.56;;;27.40;40.51
35551;BME280;21655;46.056;13.616;2022-09-11T15:11:20;100128.72;;;27.15;39.94
35551;BME280;21655;46.056;13.616;2022-09-11T15:13:46;100123.78;;;27.30;41.05
35551;BME280;21655;46.056;13.616;2022-09-11T15:16:12;100127.56;;;27.59;39.80
35551;BME280;21655;46.056;13.616;2022-09-11T15:18:37;100132.69;;;27.62;39.35
35551;BME280;21655;46.056;13.616;2022-09-11T15:21:05;100132.06;;;27.65;40.00
35551;BME280;21655;46.056;13.616;2022-09-11T15:23:30;100134.88;;;27.70;39.83
35551;BME280;21655;46.056;13.616;2022-09-11T15:26:00;100132.75;;;27.91;39.30
35551;BME280;21655;46.056;13.616;2022-09-11T15:28:28;100124.78;;;28.16;39.08
35551;BME280;21655;46.056;13.616;2022-09-11T15:30:54;100128.06;;;28.05;38.91
35551;BME280;21655;46.056;13.616;2022-09-11T15:33:21;100138.09;;;28.26;38.78
35551;BME280;21655;46.056;13.616;2022-09-11T15:35:47;100137.28;;;27.92;39.87
35551;BME280;21655;46.056;13.616;2022-09-11T15:38:13;100132.41;;;27.97;39.01
35551;BME280;21655;46.056;13.616;2022-09-11T15:40:38;100139.19;;;27.73;38.91
35551;BME280;21655;46.056;13.616;2022-09-11T15:43:04;100130.53;;;27.44;40.35
35551;BME280;21655;46.056;13.616;2022-09-11T15:45:30;100132.25;;;27.45;40.46
35551;BME280;21655;46.056;13.616;2022-09-11T15:47:56;100133.56;;;27.15;41.16
35551;BME280;21655;46.056;13.616;2022-09-11T15:50:23;100128.16;;;27.13;40.74
35551;BME280;21655;46.056;13.616;2022-09-11T15:52:52;100126.31;;;26.84;41.15
35551;BME280;21655;46.056;13.616;2022-09-11T15:55:18;100131.19;;;26.73;41.12
35551;BME280;21655;46.056;13.616;2022-09-11T15:57:43;100122.41;;;26.60;42.53
35551;BME280;21655;46.056;13.616;2022-09-11T16:00:09;100124.72;;;26.53;41.89
35551;BME280;21655;46.056;13.616;2022-09-11T16:02:35;100125.00;;;26.46;43.69
35551;BME280;21655;46.056;13.616;2022-09-11T16:05:00;100119.34;;;26.31;44.24
35551;BME280;21655;46.056;13.616;2022-09-11T16:07:26;100118.81;;;26.19;43.58
35551;BME280;21655;46.056;13.616;2022-09-11T16:09:51;100128.25;;;25.90;44.54
35551;BME280;21655;46.056;13.616;2022-09-11T16:12:17;100122.25;;;25.81;45.18
35551;BME280;21655;46.056;13.616;2022-09-11T16:14:42;100133.34;;;25.73;50.38
35551;BME280;21655;46.056;13.616;2022-09-11T16:17:08;100133.31;;;25.43;57.04
35551;BME280;21655;46.056;13.616;2022-09-11T16:19:34;100134.13;;;25.18;60.22
35551;BME280;21655;46.056;13.616;2022-09-11T16:22:02;100134.56;;;24.76;62.34
35551;BME280;21655;46.056;13.616;2022-09-11T16:24:29;100141.28;;;24.60;62.46
35551;BME280;21655;46.056;13.616;2022-09-11T16:26:55;100144.84;;;24.45;66.21
35551;BME280;21655;46.056;13.616;2022-09-11T16:29:23;100141.91;;;24.20;68.01
35551;BME280;21655;46.056;13.616;2022-09-11T16:31:49;100144.31;;;24.02;72.08
35551;BME280;21655;46.056;13.616;2022-09-11T16:34:14;100155.94;;;24.00;75.89
35551;BME280;21655;46.056;13.616;2022-09-11T16:36:42;100149.94;;;23.92;78.60
35551;BME280;21655;46.056;13.616;2022-09-11T16:39:13;100169.16;;;23.63;80.18
35551;BME280;21655;46.056;13.616;2022-09-11T16:41:39;100165.25;;;23.38;82.24
35551;BME280;21655;46.056;13.616;2022-09-11T16:44:06;100160.09;;;23.08;84.24
35551;BME280;21655;46.056;13.616;2022-09-11T16:46:32;100156.91;;;23.00;82.64
35551;BME280;21655;46.056;13.616;2022-09-11T16:48:59;100157.69;;;22.96;82.66
35551;BME280;21655;46.056;13.616;2022-09-11T16:51:25;100163.34;;;22.96;79.62
35551;BME280;21655;46.056;13.616;2022-09-11T16:53:51;100159.63;;;22.90;83.03
35551;BME280;21655;46.056;13.616;2022-09-11T16:56:19;100165.69;;;22.77;83.52
35551;BME280;21655;46.056;13.616;2022-09-11T16:58:45;100164.47;;;22.73;85.12
35551;BME280;21655;46.056;13.616;2022-09-11T17:01:16;100173.38;;;22.60;89.05
35551;BME280;21655;46.056;13.616;2022-09-11T17:03:43;100183.28;;;22.25;93.59
35551;BME280;21655;46.056;13.616;2022-09-11T17:06:10;100179.22;;;22.16;91.31
35551;BME280;21655;46.056;13.616;2022-09-11T17:08:36;100181.59;;;22.07;92.08
35551;BME280;21655;46.056;13.616;2022-09-11T17:11:04;100184.53;;;21.96;93.97
35551;BME280;21655;46.056;13.616;2022-09-11T17:13:30;100182.09;;;21.83;93.69
35551;BME280;21655;46.056;13.616;2022-09-11T17:16:01;100186.28;;;21.80;93.55
35551;BME280;21655;46.056;13.616;2022-09-11T17:18:27;100191.91;;;21.64;93.10
35551;BME280;21655;46.056;13.616;2022-09-11T17:20:57;100196.75;;;21.52;93.28
35551;BME280;21655;46.056;13.616;2022-09-11T17:23:24;100203.50;;;21.51;93.36
35551;BME280;21655;46.056;13.616;2022-09-11T17:25:50;100202.63;;;21.50;93.18
35551;BME280;21655;46.056;13.616;2022-09-11T17:28:16;100205.91;;;21.42;94.39
35551;BME280;21655;46.056;13.616;2022-09-11T17:30:44;100209.19;;;21.39;94.90
35551;BME280;21655;46.056;13.616;2022-09-11T17:33:09;100213.78;;;21.29;98.12
35551;BME280;21655;46.056;13.616;2022-09-11T17:35:35;100211.13;;;21.22;99.35
35551;BME280;21655;46.056;13.616;2022-09-11T17:38:00;100215.34;;;21.20;100.00
35551;BME280;21655;46.056;13.616;2022-09-11T17:40:27;100214.88;;;21.11;100.00
35551;BME280;21655;46.056;13.616;2022-09-11T17:42:52;100221.50;;;21.05;100.00
35551;BME280;21655;46.056;13.616;2022-09-11T17:45:18;100228.16;;;21.00;100.00
35551;BME280;21655;46.056;13.616;2022-09-11T17:47:44;100228.72;;;20.85;99.21
35551;BME280;21655;46.056;13.616;2022-09-11T17:50:09;100229.28;;;20.76;100.00
35551;BME280;21655;46.056;13.616;2022-09-11T17:52:35;100236.94;;;20.64;100.00
35551;BME280;21655;46.056;13.616;2022-09-11T17:55:04;100234.00;;;20.59;100.00
35551;BME280;21655;46.056;13.616;2022-09-11T17:57:30;100243.34;;;20.48;100.00
35551;BME280;21655;46.056;13.616;2022-09-11T17:59:57;100242.97;;;20.44;100.00
35551;BME280;21655;46.056;13.616;2022-09-11T18:02:24;100240.41;;;20.31;100.00
35551;BME280;21655;46.056;13.616;2022-09-11T18:04:49;100252.19;;;20.05;100.00
35551;BME280;21655;46.056;13.616;2022-09-11T18:07:16;100250.47;;;20.04;100.00
35551;BME280;21655;46.056;13.616;2022-09-11T18:09:41;100253.50;;;20.03;100.00
35551;BME280;21655;46.056;13.616;2022-09-11T18:12:07;100256.09;;;20.04;100.00
35551;BME280;21655;46.056;13.616;2022-09-11T18:14:35;100260.13;;;20.08;100.00
35551;BME280;21655;46.056;13.616;2022-09-11T18:17:01;100267.47;;;20.09;100.00
35551;BME280;21655;46.056;13.616;2022-09-11T18:19:26;100265.13;;;19.95;100.00
35551;BME280;21655;46.056;13.616;2022-09-11T18:21:52;100269.25;;;19.92;100.00
35551;BME280;21655;46.056;13.616;2022-09-11T18:24:19;100271.47;;;19.79;100.00
35551;BME280;21655;46.056;13.616;2022-09-11T18:26:47;100271.91;;;19.76;100.00
35551;BME280;21655;46.056;13.616;2022-09-11T18:29:14;100283.75;;;19.66;100.00
35551;BME280;21655;46.056;13.616;2022-09-11T18:31:46;100282.31;;;19.64;100.00
35551;BME280;21655;46.056;13.616;2022-09-11T18:34:17;100288.25;;;19.56;100.00
35551;BME280;21655;46.056;13.616;2022-09-11T18:36:43;100282.28;;;19.52;100.00
35551;BME280;21655;46.056;13.616;2022-09-11T18:39:10;100285.19;;;19.46;100.00
35551;BME280;21655;46.056;13.616;2022-09-11T18:41:36;100297.28;;;19.46;100.00
35551;BME280;21655;46.056;13.616;2022-09-11T18:44:04;100297.06;;;19.48;100.00
35551;BME280;21655;46.056;13.616;2022-09-11T18:46:31;100302.69;;;19.48;100.00
35551;BME280;21655;46.056;13.616;2022-09-11T18:48:57;100306.06;;;19.38;100.00
35551;BME280;21655;46.056;13.616;2022-09-11T18:51:24;100314.00;;;19.30;100.00
35551;BME280;21655;46.056;13.616;2022-09-11T18:53:51;100314.34;;;19.15;100.00
35551;BME280;21655;46.056;13.616;2022-09-11T18:56:19;100315.31;;;19.09;100.00
35551;BME280;21655;46.056;13.616;2022-09-11T18:58:46;100330.16;;;18.98;100.00
35551;BME280;21655;46.056;13.616;2022-09-11T19:01:15;100336.63;;;18.99;100.00
35551;BME280;21655;46.056;13.616;2022-09-11T19:03:41;100338.22;;;18.95;100.00
35551;BME280;21655;46.056;13.616;2022-09-11T19:06:16;100342.81;;;18.90;100.00
35551;BME280;21655;46.056;13.616;2022-09-11T19:08:42;100339.69;;;18.80;100.00
35551;BME280;21655;46.056;13.616;2022-09-11T19:11:10;100349.19;;;18.79;100.00
35551;BME280;21655;46.056;13.616;2022-09-11T19:13:37;100348.44;;;18.72;100.00
35551;BME280;21655;46.056;13.616;2022-09-11T19:16:04;100358.09;;;18.76;100.00
35551;BME280;21655;46.056;13.616;2022-09-11T19:18:30;100360.75;;;18.71;100.00
35551;BME280;21655;46.056;13.616;2022-09-11T19:23:33;100365.88;;;18.56;100.00
35551;BME280;21655;46.056;13.616;2022-09-11T19:26:03;100362.84;;;18.57;100.00
35551;BME280;21655;46.056;13.616;2022-09-11T19:28:33;100370.16;;;18.58;100.00
35551;BME280;21655;46.056;13.616;2022-09-11T19:31:03;100371.38;;;18.44;100.00
35551;BME280;21655;46.056;13.616;2022-09-11T19:33:30;100377.41;;;18.48;100.00
35551;BME280;21655;46.056;13.616;2022-09-11T19:35:59;100371.28;;;18.33;100.00
35551;BME280;21655;46.056;13.616;2022-09-11T19:38:29;100381.91;;;18.24;100.00
35551;BME280;21655;46.056;13.616;2022-09-11T19:40:55;100388.50;;;18.12;100.00
35551;BME280;21655;46.056;13.616;2022-09-11T19:43:22;100391.09;;;18.13;100.00
35551;BME280;21655;46.056;13.616;2022-09-11T19:48:35;100401.19;;;18.21;100.00
35551;BME280;21655;46.056;13.616;2022-09-11T19:51:09;100401.41;;;18.19;100.00
35551;BME280;21655;46.056;13.616;2022-09-11T19:53:36;100401.19;;;18.21;100.00
35551;BME280;21655;46.056;13.616;2022-09-11T19:56:02;100407.72;;;18.08;100.00
35551;BME280;21655;46.056;13.616;2022-09-11T19:58:30;100406.47;;;18.04;100.00
35551;BME280;21655;46.056;13.616;2022-09-11T20:00:56;100404.94;;;18.08;100.00
35551;BME280;21655;46.056;13.616;2022-09-11T20:03:22;100414.94;;;17.98;100.00
35551;BME280;21655;46.056;13.616;2022-09-11T20:05:48;100419.63;;;17.79;100.00
35551;BME280;21655;46.056;13.616;2022-09-11T20:08:14;100415.94;;;17.79;100.00
35551;BME280;21655;46.056;13.616;2022-09-11T20:10:41;100427.81;;;17.74;100.00
35551;BME280;21655;46.056;13.616;2022-09-11T20:13:09;100424.44;;;17.66;100.00
35551;BME280;21655;46.056;13.616;2022-09-11T20:15:35;100430.50;;;17.63;100.00
35551;BME280;21655;46.056;13.616;2022-09-11T20:18:01;100430.28;;;17.64;100.00
35551;BME280;21655;46.056;13.616;2022-09-11T20:20:26;100435.91;;;17.58;100.00
35551;BME280;21655;46.056;13.616;2022-09-11T20:22:53;100441.59;;;17.45;100.00
35551;BME280;21655;46.056;13.616;2022-09-11T20:25:18;100450.66;;;17.40;100.00
35551;BME280;21655;46.056;13.616;2022-09-11T20:27:44;100452.13;;;17.49;100.00
35551;BME280;21655;46.056;13.616;2022-09-11T20:30:10;100449.72;;;17.53;100.00
35551;BME280;21655;46.056;13.616;2022-09-11T20:32:37;100451.88;;;17.57;100.00
35551;BME280;21655;46.056;13.616;2022-09-11T20:35:04;100448.94;;;17.39;100.00
35551;BME280;21655;46.056;13.616;2022-09-11T20:37:30;100446.38;;;17.38;100.00
35551;BME280;21655;46.056;13.616;2022-09-11T20:39:56;100458.88;;;17.35;100.00
35551;BME280;21655;46.056;13.616;2022-09-11T20:42:22;100463.13;;;17.44;100.00
35551;BME280;21655;46.056;13.616;2022-09-11T20:44:47;100459.47;;;17.50;100.00
35551;BME280;21655;46.056;13.616;2022-09-11T20:47:14;100462.28;;;17.50;100.00
35551;BME280;21655;46.056;13.616;2022-09-11T20:49:40;100467.28;;;17.42;100.00
35551;BME280;21655;46.056;13.616;2022-09-11T20:52:07;100466.63;;;17.27;100.00
35551;BME280;21655;46.056;13.616;2022-09-11T20:54:33;100478.03;;;17.32;100.00
35551;BME280;21655;46.056;13.616;2022-09-11T20:56:58;100472.69;;;17.30;100.00
35551;BME280;21655;46.056;13.616;2022-09-11T20:59:24;100470.72;;;17.31;100.00
35551;BME280;21655;46.056;13.616;2022-09-11T21:01:49;100465.56;;;17.21;100.00
35551;BME280;21655;46.056;13.616;2022-09-11T21:04:15;100480.88;;;17.19;100.00
35551;BME280;21655;46.056;13.616;2022-09-11T21:06:41;100478.50;;;17.22;100.00
35551;BME280;21655;46.056;13.616;2022-09-11T21:09:08;100476.16;;;17.19;100.00
35551;BME280;21655;46.056;13.616;2022-09-11T21:11:36;100478.97;;;17.06;100.00
35551;BME280;21655;46.056;13.616;2022-09-11T21:14:03;100477.50;;;16.98;100.00
35551;BME280;21655;46.056;13.616;2022-09-11T21:16:28;100483.31;;;16.96;100.00
35551;BME280;21655;46.056;13.616;2022-09-11T21:18:56;100478.16;;;16.87;100.00
35551;BME280;21655;46.056;13.616;2022-09-11T21:21:23;100482.69;;;16.75;100.00
35551;BME280;21655;46.056;13.616;2022-09-11T21:23:53;100482.69;;;16.75;100.00
35551;BME280;21655;46.056;13.616;2022-09-11T21:26:19;100493.25;;;16.73;100.00
35551;BME280;21655;46.056;13.616;2022-09-11T21:28:44;100488.94;;;16.70;100.00
35551;BME280;21655;46.056;13.616;2022-09-11T21:31:10;100498.41;;;16.63;100.00
35551;BME280;21655;46.056;13.616;2022-09-11T21:33:36;100501.66;;;16.66;100.00
35551;BME280;21655;46.056;13.616;2022-09-11T21:36:03;100496.69;;;16.68;100.00
35551;BME280;21655;46.056;13.616;2022-09-11T21:38:29;100490.25;;;16.68;100.00
35551;BME280;21655;46.056;13.616;2022-09-11T21:41:00;100494.97;;;16.67;100.00
35551;BME280;21655;46.056;13.616;2022-09-11T21:43:25;100487.47;;;16.68;100.00
35551;BME280;21655;46.056;13.616;2022-09-11T21:45:51;100493.25;;;16.73;100.00
35551;BME280;21655;46.056;13.616;2022-09-11T21:48:17;100499.31;;;16.70;100.00
35551;BME280;21655;46.056;13.616;2022-09-11T21:50:42;100500.59;;;16.48;100.00
35551;BME280;21655;46.056;13.616;2022-09-11T21:53:08;100508.13;;;16.41;100.00
35551;BME280;21655;46.056;13.616;2022-09-11T21:55:36;100510.47;;;16.37;100.00
35551;BME280;21655;46.056;13.616;2022-09-11T21:58:02;100509.13;;;16.27;100.00
35551;BME280;21655;46.056;13.616;2022-09-11T22:00:27;100514.09;;;16.25;100.00
35551;BME280;21655;46.056;13.616;2022-09-11T22:02:53;100520.13;;;16.22;100.00
35551;BME280;21655;46.056;13.616;2022-09-11T22:05:18;100524.63;;;16.23;100.00
35551;BME280;21655;46.056;13.616;2022-09-11T22:07:44;100528.97;;;16.32;100.00
35551;BME280;21655;46.056;13.616;2022-09-11T22:10:09;100523.81;;;16.35;100.00
35551;BME280;21655;46.056;13.616;2022-09-11T22:12:35;100518.81;;;16.31;100.00
35551;BME280;21655;46.056;13.616;2022-09-11T22:15:00;100514.59;;;16.35;100.00
35551;BME280;21655;46.056;13.616;2022-09-11T22:17:26;100517.53;;;16.27;100.00
35551;BME280;21655;46.056;13.616;2022-09-11T22:19:52;100524.44;;;16.18;100.00
35551;BME280;21655;46.056;13.616;2022-09-11T22:22:18;100530.44;;;16.15;100.00
35551;BME280;21655;46.056;13.616;2022-09-11T22:24:43;100524.84;;;16.08;100.00
35551;BME280;21655;46.056;13.616;2022-09-11T22:27:09;100531.72;;;16.06;100.00
35551;BME280;21655;46.056;13.616;2022-09-11T22:29:35;100532.97;;;16.03;100.00
35551;BME280;21655;46.056;13.616;2022-09-11T22:32:02;100528.72;;;16.07;100.00
35551;BME280;21655;46.056;13.616;2022-09-11T22:34:27;100538.41;;;16.18;100.00
35551;BME280;21655;46.056;13.616;2022-09-11T22:36:53;100533.91;;;16.17;100.00
35551;BME280;21655;46.056;13.616;2022-09-11T22:39:18;100535.38;;;16.06;100.00
35551;BME280;21655;46.056;13.616;2022-09-11T22:41:44;100534.97;;;16.09;100.00
35551;BME280;21655;46.056;13.616;2022-09-11T22:44:09;100527.63;;;16.08;100.00
35551;BME280;21655;46.056;13.616;2022-09-11T22:46:35;100537.47;;;15.98;100.00
35551;BME280;21655;46.056;13.616;2022-09-11T22:49:01;100540.72;;;16.01;100.00
35551;BME280;21655;46.056;13.616;2022-09-11T22:51:28;100547.81;;;15.97;100.00
35551;BME280;21655;46.056;13.616;2022-09-11T22:53:53;100542.66;;;15.94;100.00
35551;BME280;21655;46.056;13.616;2022-09-11T22:56:20;100539.84;;;15.94;100.00
35551;BME280;21655;46.056;13.616;2022-09-11T22:58:46;100541.56;;;15.89;100.00
35551;BME280;21655;46.056;13.616;2022-09-11T23:01:12;100543.06;;;15.85;100.00
35551;BME280;21655;46.056;13.616;2022-09-11T23:03:40;100538.75;;;15.89;100.00
35551;BME280;21655;46.056;13.616;2022-09-11T23:06:05;100540.00;;;15.73;100.00
35551;BME280;21655;46.056;13.616;2022-09-11T23:08:51;100546.44;;;15.74;100.00
35551;BME280;21655;46.056;13.616;2022-09-11T23:11:17;100539.38;;;15.84;100.00
35551;BME280;21655;46.056;13.616;2022-09-11T23:13:44;100540.47;;;15.90;100.00
35551;BME280;21655;46.056;13.616;2022-09-11T23:16:18;100539.63;;;15.96;100.00
35551;BME280;21655;46.056;13.616;2022-09-11T23:18:43;100534.47;;;15.93;100.00
35551;BME280;21655;46.056;13.616;2022-09-11T23:21:10;100538.34;;;15.98;100.00
35551;BME280;21655;46.056;13.616;2022-09-11T23:23:36;100536.63;;;15.97;100.00
35551;BME280;21655;46.056;13.616;2022-09-11T23:26:10;100534.25;;;15.94;100.00
35551;BME280;21655;46.056;13.616;2022-09-11T23:28:36;100533.75;;;15.78;100.00
35551;BME280;21655;46.056;13.616;2022-09-11T23:31:03;100534.19;;;15.75;100.00
35551;BME280;21655;46.056;13.616;2022-09-11T23:33:33;100527.53;;;15.76;100.00
35551;BME280;21655;46.056;13.616;2022-09-11T23:36:09;100529.03;;;15.78;100.00
35551;BME280;21655;46.056;13.616;2022-09-11T23:38:34;100534.22;;;15.81;100.00
35551;BME280;21655;46.056;13.616;2022-09-11T23:41:00;100527.91;;;15.66;100.00
35551;BME280;21655;46.056;13.616;2022-09-11T23:43:25;100523.19;;;15.60;100.00
35551;BME280;21655;46.056;13.616;2022-09-11T23:45:51;100523.19;;;15.60;100.00
35551;BME280;21655;46.056;13.616;2022-09-11T23:48:17;100533.91;;;15.57;100.00
35551;BME280;21655;46.056;13.616;2022-09-11T23:50:43;100528.13;;;15.58;100.00
35551;BME280;21655;46.056;13.616;2022-09-11T23:53:08;100531.94;;;15.51;100.00
35551;BME280;21655;46.056;13.616;2022-09-11T23:55:34;100530.88;;;15.52;100.00
35551;BME280;21655;46.056;13.616;2022-09-11T23:58:00;100530.03;;;15.58;100.00
